Time;durP1;ratioP1;P1;durP2;ratioP2;P2;SDS_P1;SDS_P2;PMS_P1;PMS_P2;Temp;Humidity;BMP_temperature;BMP_pressure;BME280_temperature;BME280_humidity;BME280_pressure;Samples;Min_cycle;Max_cycle;Signal;HPM_P1;HPM_P2
2023/06/17 00:02:12;;;;;;;18.60;10.75;;;15.00;99.90;;;;;;4968582;28;20046;-72
2023/06/17 00:04:38;;;;;;;18.83;10.02;;;15.00;99.90;;;;;;4905782;28;224492;-72
2023/06/17 00:07:04;;;;;;;20.35;11.02;;;15.00;99.90;;;;;;4979491;28;20065;-71
2023/06/17 00:09:31;;;;;;;17.27;10.77;;;14.90;99.90;;;;;;4921789;28;212179;-72
2023/06/17 00:11:57;;;;;;;18.80;11.13;;;14.90;99.90;;;;;;4972549;28;20530;-72
2023/06/17 00:14:24;;;;;;;18.92;12.82;;;14.90;99.90;;;;;;4943211;28;218495;-72
2023/06/17 00:16:50;;;;;;;19.88;13.52;;;14.80;99.90;;;;;;4990861;28;20064;-71
2023/06/17 00:19:17;;;;;;;16.55;12.02;;;14.80;99.90;;;;;;4945926;28;84294;-71
2023/06/17 00:21:44;;;;;;;18.85;12.70;;;14.80;99.90;;;;;;4981719;28;20495;-71
2023/06/17 00:24:13;;;;;;;22.45;12.43;;;14.90;99.90;;;;;;4929852;28;209797;-72
2023/06/17 00:26:39;;;;;;;18.33;11.73;;;14.90;99.90;;;;;;4989700;28;20053;-72
2023/06/17 00:29:06;;;;;;;19.65;12.80;;;15.00;99.90;;;;;;4940440;28;208585;-72
2023/06/17 00:31:33;;;;;;;23.63;13.57;;;15.10;99.90;;;;;;4998962;28;20153;-72
2023/06/17 00:33:59;;;;;;;21.92;12.82;;;15.20;99.90;;;;;;4934443;28;221716;-72
2023/06/17 00:36:26;;;;;;;18.20;11.60;;;15.20;99.90;;;;;;4985900;28;20124;-72
2023/06/17 00:38:52;;;;;;;19.58;12.98;;;15.20;99.90;;;;;;4922697;28;122563;-71
2023/06/17 00:41:19;;;;;;;19.48;12.85;;;15.40;99.90;;;;;;4986139;28;20046;-71
2023/06/17 00:43:45;;;;;;;21.52;13.07;;;15.40;99.90;;;;;;4912083;28;227122;-71
2023/06/17 00:46:33;;;;;;;19.80;12.65;;;15.40;99.90;;;;;;4990391;28;20050;-71
2023/06/17 00:49:00;;;;;;;23.13;12.60;;;15.40;99.90;;;;;;4946358;28;205578;-71
2023/06/17 00:51:26;;;;;;;23.00;13.98;;;15.40;99.90;;;;;;4979518;28;20046;-72
2023/06/17 00:53:53;;;;;;;23.63;13.25;;;15.40;99.90;;;;;;4891302;28;216799;-71
2023/06/17 00:56:19;;;;;;;21.83;14.60;;;15.40;99.90;;;;;;4989963;28;20084;-71
2023/06/17 00:58:45;;;;;;;23.02;15.15;;;15.50;99.90;;;;;;4932723;28;216463;-71
2023/06/17 01:01:11;;;;;;;24.00;15.25;;;15.50;99.90;;;;;;4979516;28;20050;-71
2023/06/17 01:03:37;;;;;;;22.67;14.23;;;15.50;99.90;;;;;;4934791;28;213342;-71
2023/06/17 01:06:13;;;;;;;20.85;14.10;;;15.40;99.90;;;;;;4989223;28;20055;-71
2023/06/17 01:08:47;;;;;;;21.40;13.32;;;15.40;99.90;;;;;;4936084;28;212961;-71
2023/06/17 01:11:19;;;;;;;19.85;14.10;;;15.40;99.90;;;;;;4998006;28;20058;-71
2023/06/17 01:13:50;;;;;;;25.20;16.00;;;15.40;99.90;;;;;;4936559;28;215334;-71
2023/06/17 01:16:16;;;;;;;;;;;15.40;99.90;;;;;;4978571;28;20050;-70
2023/06/17 01:18:48;;;;;;;21.15;14.27;;;15.40;99.90;;;;;;4933529;28;212831;-72
2023/06/17 01:21:17;;;;;;;20.45;14.80;;;15.40;99.90;;;;;;4971392;28;20408;-71
2023/06/17 01:23:44;;;;;;;26.45;16.15;;;15.40;99.90;;;;;;4917391;28;215741;-72
2023/06/17 01:26:11;;;;;;;26.85;15.50;;;15.40;99.90;;;;;;4972497;28;20061;-72
2023/06/17 01:28:40;;;;;;;26.73;17.55;;;15.40;99.90;;;;;;4931497;28;210812;-72
2023/06/17 01:31:08;;;;;;;28.80;18.55;;;15.40;99.90;;;;;;4991928;28;20066;-72
2023/06/17 01:33:36;;;;;;;25.23;17.95;;;15.40;99.90;;;;;;4932748;28;207418;-71
2023/06/17 01:36:09;;;;;;;26.65;19.38;;;15.30;99.90;;;;;;5002341;28;20058;-71
2023/06/17 01:38:43;;;;;;;30.27;20.17;;;15.30;99.90;;;;;;4925115;28;209398;-71
2023/06/17 01:41:26;;;;;;;29.80;20.23;;;15.30;99.90;;;;;;4978712;28;20062;-71
2023/06/17 01:43:55;;;;;;;35.70;20.92;;;15.30;99.90;;;;;;4935181;28;208761;-71
2023/06/17 01:46:24;;;;;;;30.33;19.77;;;15.30;99.90;;;;;;4989521;28;20066;-71
2023/06/17 01:48:53;;;;;;;30.45;21.00;;;15.30;99.90;;;;;;4913568;28;212001;-71
2023/06/17 01:51:19;;;;;;;27.42;19.10;;;15.40;99.90;;;;;;4979682;28;20049;-70
2023/06/17 01:53:46;;;;;;;31.85;19.75;;;15.40;99.90;;;;;;4893895;28;210686;-72
2023/06/17 01:56:13;;;;;;;25.38;19.13;;;15.50;99.90;;;;;;4967937;28;20073;-71
2023/06/17 01:58:39;;;;;;;30.38;20.90;;;15.40;99.90;;;;;;4919317;28;213878;-71
2023/06/17 02:01:05;;;;;;;30.13;21.00;;;15.30;99.90;;;;;;4970323;28;20051;-70
2023/06/17 02:03:32;;;;;;;27.43;20.20;;;15.30;99.90;;;;;;4932570;28;217120;-70
2023/06/17 02:05:58;;;;;;;30.27;20.35;;;15.30;99.90;;;;;;5005055;28;20603;-71
2023/06/17 02:08:24;;;;;;;28.45;20.70;;;15.40;99.90;;;;;;4924874;28;208402;-71
2023/06/17 02:10:50;;;;;;;35.28;21.50;;;15.40;99.90;;;;;;4978515;28;20051;-71
2023/06/17 02:13:17;;;;;;;27.83;20.33;;;15.50;99.90;;;;;;4920304;28;210480;-71
2023/06/17 02:15:43;;;;;;;28.17;18.85;;;15.50;99.90;;;;;;4993303;28;20085;-71
2023/06/17 02:18:10;;;;;;;29.10;20.35;;;15.50;99.90;;;;;;4963486;28;206854;-70
2023/06/17 02:20:36;;;;;;;26.55;19.52;;;15.60;99.90;;;;;;4914808;28;20054;-71
2023/06/17 02:23:02;;;;;;;27.85;19.45;;;15.70;99.90;;;;;;4982179;28;20555;-71
2023/06/17 02:25:28;;;;;;;29.77;20.75;;;15.60;99.90;;;;;;4936685;28;212943;-71
2023/06/17 02:27:54;;;;;;;30.63;21.00;;;15.50;99.90;;;;;;4988397;28;20061;-71
2023/06/17 02:30:21;;;;;;;31.65;21.40;;;15.50;99.90;;;;;;4908896;28;212470;-71
2023/06/17 02:32:47;;;;;;;26.88;20.73;;;15.50;99.90;;;;;;4963435;28;20054;-72
2023/06/17 02:35:13;;;;;;;27.90;18.02;;;15.50;99.90;;;;;;4931872;28;225560;-72
2023/06/17 02:37:40;;;;;;;29.15;19.90;;;15.60;99.90;;;;;;4987435;28;20058;-72
2023/06/17 02:40:08;;;;;;;30.55;19.35;;;15.70;99.90;;;;;;4927175;28;211379;-72
2023/06/17 02:42:36;;;;;;;29.52;19.70;;;15.70;99.90;;;;;;4963332;28;20058;-72
2023/06/17 02:45:03;;;;;;;26.05;19.33;;;15.70;99.90;;;;;;4934174;28;119205;-73
2023/06/17 02:47:29;;;;;;;27.75;19.60;;;15.60;99.90;;;;;;4960330;28;20076;-72
2023/06/17 02:49:55;;;;;;;30.35;18.38;;;15.60;99.90;;;;;;4940574;28;211723;-72
2023/06/17 02:52:22;;;;;;;27.48;20.15;;;15.50;99.90;;;;;;4965201;28;20428;-71
2023/06/17 02:54:49;;;;;;;27.25;17.33;;;15.50;99.90;;;;;;4918310;28;218293;-71
2023/06/17 02:57:16;;;;;;;29.08;18.83;;;15.60;99.90;;;;;;4966450;28;20058;-71
2023/06/17 02:59:42;;;;;;;25.17;18.52;;;15.60;99.90;;;;;;4924697;28;226998;-72
2023/06/17 03:02:09;;;;;;;28.83;19.92;;;15.60;99.90;;;;;;4971440;28;20065;-71
2023/06/17 03:04:35;;;;;;;32.85;19.10;;;15.70;99.90;;;;;;4917434;28;211797;-71
2023/06/17 03:07:05;;;;;;;27.63;18.45;;;15.70;99.90;;;;;;4960663;28;20077;-71
2023/06/17 03:09:32;;;;;;;25.90;18.47;;;15.60;99.90;;;;;;4931680;28;214101;-71
2023/06/17 03:11:59;;;;;;;33.47;20.30;;;15.60;99.90;;;;;;4988129;28;20304;-72
2023/06/17 03:14:25;;;;;;;24.98;18.73;;;15.40;99.90;;;;;;4935798;28;216079;-72
2023/06/17 03:16:52;;;;;;;26.40;19.38;;;15.40;99.90;;;;;;4976098;28;20055;-72
2023/06/17 03:19:18;;;;;;;28.45;19.65;;;15.40;99.90;;;;;;4917616;28;207568;-72
2023/06/17 03:21:45;;;;;;;31.15;20.17;;;15.30;99.90;;;;;;4974300;28;20404;-72
2023/06/17 03:24:11;;;;;;;28.17;19.90;;;15.30;99.90;;;;;;4928908;28;158625;-72
2023/06/17 03:26:37;;;;;;;27.48;18.85;;;15.30;99.90;;;;;;4998523;28;20057;-71
2023/06/17 03:29:04;;;;;;;28.58;19.25;;;15.20;99.90;;;;;;4930993;28;207919;-72
2023/06/17 03:31:30;;;;;;;27.60;19.70;;;15.30;99.90;;;;;;4980736;28;20046;-72
2023/06/17 03:33:56;;;;;;;27.55;19.48;;;15.30;99.90;;;;;;4928356;28;214879;-71
2023/06/17 03:36:28;;;;;;;28.52;18.52;;;15.30;99.90;;;;;;4982239;28;20058;-71
2023/06/17 03:38:55;;;;;;;28.77;20.23;;;15.40;99.90;;;;;;4933424;28;210432;-71
2023/06/17 03:41:22;;;;;;;31.73;21.48;;;15.40;99.90;;;;;;4987932;28;20069;-72
2023/06/17 03:43:48;;;;;;;28.92;20.75;;;15.50;99.90;;;;;;4912602;28;213377;-72
2023/06/17 03:46:14;;;;;;;32.35;21.58;;;15.60;99.90;;;;;;4960603;28;20061;-71
2023/06/17 03:48:40;;;;;;;33.47;22.83;;;15.60;99.90;;;;;;4924452;28;214108;-73
2023/06/17 03:51:06;;;;;;;32.08;21.73;;;15.50;99.90;;;;;;4972076;28;20198;-71
2023/06/17 03:53:32;;;;;;;32.33;21.25;;;15.40;99.90;;;;;;4917817;28;215582;-71
2023/06/17 03:55:58;;;;;;;29.88;21.27;;;15.40;99.90;;;;;;4992175;28;20080;-71
2023/06/17 03:58:24;;;;;;;25.33;19.90;;;15.40;99.90;;;;;;4925486;28;223573;-72
2023/06/17 04:00:51;;;;;;;26.95;20.13;;;15.30;99.90;;;;;;5004775;28;20061;-70
2023/06/17 04:03:24;;;;;;;28.08;19.88;;;15.30;99.90;;;;;;4905450;28;214422;-70
2023/06/17 04:05:51;;;;;;;26.83;20.80;;;15.40;99.90;;;;;;4967253;28;20058;-71
2023/06/17 04:08:18;;;;;;;25.52;20.17;;;15.40;99.90;;;;;;4925890;28;211818;-70
2023/06/17 04:10:47;;;;;;;27.15;20.52;;;15.40;99.90;;;;;;4968728;28;20546;-72
2023/06/17 04:13:14;;;;;;;29.33;20.92;;;15.40;99.90;;;;;;4944803;28;215350;-71
2023/06/17 04:15:42;;;;;;;32.42;21.95;;;15.40;99.90;;;;;;4977191;28;20054;-71
2023/06/17 04:18:08;;;;;;;30.65;21.70;;;15.40;99.90;;;;;;4951426;28;216360;-71
2023/06/17 04:20:36;;;;;;;30.67;21.75;;;15.30;99.90;;;;;;4943923;28;209341;-72
2023/06/17 04:23:03;;;;;;;27.60;21.17;;;15.30;99.90;;;;;;4961615;28;20062;-72
2023/06/17 04:25:32;;;;;;;29.30;20.73;;;15.20;99.90;;;;;;4918685;28;227759;-71
2023/06/17 04:28:01;;;;;;;27.95;19.98;;;15.20;99.90;;;;;;4960555;28;20070;-71
2023/06/17 04:30:27;;;;;;;28.80;20.75;;;15.30;99.90;;;;;;4932517;28;208388;-71
2023/06/17 04:32:58;;;;;;;26.60;19.63;;;15.40;99.90;;;;;;4962326;28;20051;-71
2023/06/17 04:35:24;;;;;;;27.83;20.75;;;15.40;99.90;;;;;;4919259;28;223209;-72
2023/06/17 04:37:53;;;;;;;27.10;20.67;;;15.40;99.90;;;;;;4961085;28;20059;-71
2023/06/17 04:40:20;;;;;;;29.83;20.92;;;15.40;99.90;;;;;;4926789;28;211611;-72
2023/06/17 04:42:47;;;;;;;26.83;20.65;;;15.40;99.90;;;;;;4957097;28;20051;-71
2023/06/17 04:45:14;;;;;;;32.80;21.58;;;15.40;99.90;;;;;;4918541;28;207001;-71
2023/06/17 04:47:40;;;;;;;26.52;20.08;;;15.30;99.90;;;;;;4958503;28;20058;-71
2023/06/17 04:50:06;;;;;;;26.98;20.65;;;15.40;99.90;;;;;;4934237;28;218196;-71
2023/06/17 04:52:32;;;;;;;29.90;21.73;;;15.30;99.90;;;;;;4963619;28;20055;-72
2023/06/17 04:54:58;;;;;;;27.98;21.38;;;15.30;99.90;;;;;;4915025;28;220044;-71
2023/06/17 04:57:25;;;;;;;31.45;21.13;;;15.40;99.90;;;;;;4964261;28;20061;-71
2023/06/17 04:59:51;;;;;;;30.05;21.63;;;15.30;99.90;;;;;;4911540;28;213968;-71
2023/06/17 05:02:17;;;;;;;30.90;22.05;;;15.30;99.90;;;;;;4961058;28;20061;-71
2023/06/17 05:04:43;;;;;;;26.17;20.15;;;15.40;99.90;;;;;;4916344;28;214957;-71
2023/06/17 05:07:09;;;;;;;29.60;21.02;;;15.40;99.90;;;;;;4962253;28;20054;-71
2023/06/17 05:09:35;;;;;;;27.65;21.55;;;15.40;99.90;;;;;;4917325;28;214434;-72
2023/06/17 05:12:01;;;;;;;29.75;20.85;;;15.50;99.90;;;;;;4965535;28;20047;-72
2023/06/17 05:14:27;;;;;;;32.17;23.23;;;15.60;99.90;;;;;;4922701;28;210789;-72
2023/06/17 05:16:53;;;;;;;29.48;22.63;;;15.60;99.90;;;;;;4989225;28;20058;-71
2023/06/17 05:19:19;;;;;;;33.33;21.27;;;15.60;99.90;;;;;;4931460;28;218019;-72
2023/06/17 05:21:45;;;;;;;27.67;21.10;;;15.60;99.90;;;;;;4970189;28;20053;-71
2023/06/17 05:24:11;;;;;;;27.98;20.17;;;15.70;99.90;;;;;;4923662;28;212674;-71
2023/06/17 05:26:37;;;;;;;29.92;22.95;;;15.70;99.90;;;;;;4990012;28;20397;-71
2023/06/17 05:29:04;;;;;;;28.92;22.15;;;15.80;99.90;;;;;;4929122;28;213333;-71
2023/06/17 05:31:30;;;;;;;28.05;20.65;;;15.80;99.90;;;;;;4989058;28;20046;-71
2023/06/17 05:33:56;;;;;;;26.25;19.27;;;15.90;99.90;;;;;;4929270;28;216110;-71
2023/06/17 05:36:22;;;;;;;27.50;20.38;;;15.80;99.90;;;;;;4965561;28;20061;-72
2023/06/17 05:38:48;;;;;;;28.30;19.50;;;15.80;99.90;;;;;;4909715;28;214061;-70
2023/06/17 05:41:14;;;;;;;25.88;19.15;;;15.90;99.90;;;;;;4958179;28;20105;-72
2023/06/17 05:43:40;;;;;;;28.65;20.50;;;15.80;99.90;;;;;;4918907;28;217555;-71
2023/06/17 05:46:06;;;;;;;28.75;20.85;;;15.70;99.90;;;;;;4971535;28;20051;-72
2023/06/17 05:48:32;;;;;;;29.58;21.13;;;15.70;99.90;;;;;;4919322;28;205436;-71
2023/06/17 05:50:58;;;;;;;32.40;21.23;;;15.70;99.90;;;;;;4974621;28;20050;-72
2023/06/17 05:53:24;;;;;;;30.67;20.53;;;15.70;99.90;;;;;;4897292;28;229798;-71
2023/06/17 05:55:51;;;;;;;27.70;20.17;;;15.80;99.90;;;;;;4972963;28;20051;-71
2023/06/17 05:58:17;;;;;;;27.90;20.40;;;15.90;99.90;;;;;;4907179;28;219554;-71
2023/06/17 06:00:44;;;;;;;28.30;20.10;;;15.90;99.90;;;;;;4958372;28;20043;-72
2023/06/17 06:03:10;;;;;;;27.27;19.90;;;15.90;99.90;;;;;;4939170;28;214355;-72
2023/06/17 06:05:36;;;;;;;29.27;19.48;;;15.90;99.90;;;;;;4954472;28;201057;-72
2023/06/17 06:08:02;;;;;;;30.88;19.70;;;15.90;99.90;;;;;;4990712;28;20058;-72
2023/06/17 06:10:29;;;;;;;26.27;19.75;;;16.00;99.90;;;;;;4922900;28;217103;-73
2023/06/17 06:12:55;;;;;;;25.23;18.30;;;16.10;99.90;;;;;;4966655;28;20497;-72
2023/06/17 06:15:21;;;;;;;26.08;18.58;;;16.20;99.90;;;;;;4917017;28;210023;-71
2023/06/17 06:17:47;;;;;;;26.23;19.42;;;16.30;99.90;;;;;;4990282;28;20058;-72
2023/06/17 06:20:13;;;;;;;26.25;18.52;;;16.40;99.90;;;;;;4927118;28;213659;-71
2023/06/17 06:22:39;;;;;;;26.75;19.40;;;16.40;99.90;;;;;;4981104;28;20536;-71
2023/06/17 06:25:06;;;;;;;26.58;20.45;;;16.30;99.90;;;;;;4955563;28;168366;-72
2023/06/17 06:27:32;;;;;;;24.88;19.20;;;16.20;99.90;;;;;;4962738;28;20054;-71
2023/06/17 06:29:58;;;;;;;26.50;19.48;;;16.20;99.90;;;;;;4921367;28;207166;-71
2023/06/17 06:32:24;;;;;;;26.35;18.00;;;16.10;99.90;;;;;;4963259;28;20077;-72
2023/06/17 06:34:50;;;;;;;26.30;19.02;;;16.20;99.90;;;;;;4911515;28;218706;-71
2023/06/17 06:37:16;;;;;;;21.67;17.15;;;16.10;99.90;;;;;;4967677;28;20539;-70
2023/06/17 06:39:42;;;;;;;22.73;18.98;;;16.10;99.90;;;;;;4918492;28;232221;-72
2023/06/17 06:42:10;;;;;;;25.92;18.15;;;16.10;99.90;;;;;;4970874;28;20058;-72
2023/06/17 06:44:36;;;;;;;24.60;19.05;;;16.10;99.90;;;;;;4913566;28;211123;-71
2023/06/17 06:47:03;;;;;;;28.42;17.02;;;16.20;99.90;;;;;;4961704;28;20081;-70
2023/06/17 06:49:29;;;;;;;27.48;19.13;;;16.30;99.90;;;;;;4937330;28;211587;-71
2023/06/17 06:51:55;;;;;;;26.80;18.60;;;16.20;99.90;;;;;;4985014;28;20427;-71
2023/06/17 06:54:22;;;;;;;26.23;18.25;;;16.30;99.90;;;;;;4905937;28;207905;-71
2023/06/17 06:56:48;;;;;;;23.63;17.23;;;16.50;99.90;;;;;;5000139;28;20069;-72
2023/06/17 06:59:15;;;;;;;22.67;17.10;;;16.60;99.90;;;;;;4940221;28;204881;-71
2023/06/17 07:01:41;;;;;;;30.13;18.17;;;16.80;99.90;;;;;;4998137;28;20050;-71
2023/06/17 07:04:07;;;;;;;21.95;16.63;;;16.90;99.90;;;;;;4948333;28;149103;-71
2023/06/17 07:06:33;;;;;;;21.90;16.95;;;17.00;99.90;;;;;;5000008;28;20053;-71
2023/06/17 07:08:59;;;;;;;24.52;16.48;;;17.10;99.90;;;;;;4928839;28;213737;-71
2023/06/17 07:11:26;;;;;;;20.95;17.20;;;17.30;99.90;;;;;;4988221;28;20047;-71
2023/06/17 07:13:53;;;;;;;25.25;17.63;;;17.40;99.90;;;;;;4928844;28;215929;-71
2023/06/17 07:16:19;;;;;;;23.55;16.50;;;17.60;99.90;;;;;;4990392;28;20050;-72
2023/06/17 07:18:45;;;;;;;25.42;17.45;;;17.80;99.90;;;;;;4935982;28;206970;-71
2023/06/17 07:21:12;;;;;;;23.25;15.07;;;17.80;99.90;;;;;;5007287;28;20039;-71
2023/06/17 07:23:38;;;;;;;24.17;17.02;;;17.70;99.90;;;;;;4907750;28;213389;-72
2023/06/17 07:26:05;;;;;;;24.60;17.17;;;17.30;99.90;;;;;;4961105;28;20055;-71
2023/06/17 07:28:32;;;;;;;24.77;17.05;;;17.50;99.90;;;;;;4899959;28;210830;-71
2023/06/17 07:30:58;;;;;;;22.92;15.73;;;17.90;99.90;;;;;;4950044;28;20058;-72
2023/06/17 07:33:26;;;;;;;20.40;15.50;;;18.00;99.90;;;;;;4892995;28;253460;-71
2023/06/17 07:35:52;;;;;;;22.85;15.85;;;17.90;99.90;;;;;;5005242;28;20038;-71
2023/06/17 07:38:18;;;;;;;21.95;16.38;;;18.00;99.90;;;;;;4935572;28;259218;-71
2023/06/17 07:40:46;;;;;;;25.65;15.30;;;18.30;99.90;;;;;;5001027;28;22505;-72
2023/06/17 07:43:12;;;;;;;23.40;14.75;;;18.50;99.90;;;;;;4926057;28;245125;-70
2023/06/17 07:45:39;;;;;;;19.70;15.60;;;18.90;99.90;;;;;;4971429;28;20050;-73
2023/06/17 07:48:05;;;;;;;22.33;15.60;;;19.00;99.90;;;;;;4979343;28;20538;-71
2023/06/17 07:50:31;;;;;;;19.33;14.57;;;19.10;99.90;;;;;;4933453;28;211122;-72
2023/06/17 07:52:57;;;;;;;21.55;14.95;;;19.50;99.90;;;;;;4945032;28;20062;-72
2023/06/17 07:55:23;;;;;;;19.20;14.75;;;19.50;99.90;;;;;;4923628;28;221046;-72
2023/06/17 07:57:49;;;;;;;21.92;13.80;;;19.90;99.90;;;;;;4985004;28;20483;-74
2023/06/17 08:00:16;;;;;;;22.98;15.10;;;19.90;99.90;;;;;;4952200;28;213888;-71
2023/06/17 08:02:43;;;;;;;21.52;14.32;;;19.80;99.90;;;;;;4989250;28;20045;-72
2023/06/17 08:05:10;;;;;;;19.30;13.90;;;20.10;99.90;;;;;;4942955;28;220333;-73
2023/06/17 08:07:36;;;;;;;20.75;13.90;;;20.50;99.90;;;;;;4970043;28;20061;-71
2023/06/17 08:10:02;;;;;;;18.80;13.68;;;21.00;99.90;;;;;;4922992;28;219181;-71
2023/06/17 08:12:28;;;;;;;19.67;12.05;;;21.50;99.90;;;;;;4966642;28;20070;-72
2023/06/17 08:14:54;;;;;;;20.08;13.57;;;22.20;99.90;;;;;;4926511;28;216323;-72
2023/06/17 08:17:21;;;;;;;21.38;13.32;;;22.70;99.70;;;;;;4970562;28;20058;-71
2023/06/17 08:19:47;;;;;;;19.27;12.32;;;22.30;99.90;;;;;;4921289;28;211461;-72
2023/06/17 08:22:13;;;;;;;22.77;12.85;;;22.30;99.90;;;;;;4966229;28;20770;-72
2023/06/17 08:24:39;;;;;;;17.13;12.20;;;22.50;99.90;;;;;;4917847;28;210470;-72
2023/06/17 08:27:06;;;;;;;16.73;12.23;;;22.80;99.90;;;;;;4969098;28;20054;-72
2023/06/17 08:29:32;;;;;;;18.40;11.73;;;23.10;99.90;;;;;;4936154;28;210863;-71
2023/06/17 08:31:58;;;;;;;20.73;11.95;;;23.10;99.90;;;;;;5005036;28;20057;-71
2023/06/17 08:34:24;;;;;;;17.85;11.77;;;23.80;99.90;;;;;;4937127;28;207644;-72
2023/06/17 08:36:54;;;;;;;17.20;10.50;;;24.30;99.70;;;;;;4969229;28;20070;-72
2023/06/17 08:39:21;;;;;;;17.63;10.90;;;24.70;98.90;;;;;;4922380;28;214513;-71
2023/06/17 08:41:47;;;;;;;18.15;10.27;;;24.80;98.20;;;;;;4981097;28;20058;-72
2023/06/17 08:44:14;;;;;;;15.10;10.18;;;25.20;98.50;;;;;;4928377;28;212340;-72
2023/06/17 08:46:43;;;;;;;15.48;8.73;;;25.80;96.60;;;;;;4998809;28;20046;-71
2023/06/17 08:49:11;;;;;;;15.18;9.85;;;26.00;96.80;;;;;;4940583;28;231228;-71
2023/06/17 08:51:39;;;;;;;16.67;8.95;;;26.30;96.00;;;;;;4991508;28;20076;-71
2023/06/17 08:54:06;;;;;;;15.07;8.85;;;26.60;95.80;;;;;;4887036;28;190123;-71
2023/06/17 08:56:33;;;;;;;18.30;9.57;;;27.10;95.00;;;;;;4973395;28;20049;-72
2023/06/17 08:59:00;;;;;;;15.07;9.18;;;26.70;93.20;;;;;;4931657;28;231269;-72
2023/06/17 09:01:27;;;;;;;14.52;8.82;;;26.10;93.60;;;;;;4990608;28;20058;-72
2023/06/17 09:03:54;;;;;;;14.27;8.20;;;25.90;95.20;;;;;;4933765;28;219853;-71
2023/06/17 09:06:21;;;;;;;15.25;8.73;;;26.40;94.80;;;;;;4986143;28;20066;-72
2023/06/17 09:08:48;;;;;;;13.75;8.32;;;27.20;94.60;;;;;;4917308;28;235213;-72
2023/06/17 09:11:14;;;;;;;16.92;9.00;;;28.00;93.80;;;;;;4988797;28;20050;-72
2023/06/17 09:13:40;;;;;;;14.50;8.13;;;28.40;92.80;;;;;;4916163;28;218451;-73
2023/06/17 09:16:07;;;;;;;13.80;8.48;;;28.30;91.20;;;;;;4996025;28;20058;-72
2023/06/17 09:18:34;;;;;;;14.90;8.63;;;27.80;92.40;;;;;;4931353;28;223347;-72
2023/06/17 09:21:04;;;;;;;12.30;8.13;;;27.80;91.90;;;;;;4981124;28;20042;-72
2023/06/17 09:23:30;;;;;;;15.20;8.70;;;27.90;92.10;;;;;;4931321;28;213925;-72
2023/06/17 09:26:04;;;;;;;13.23;8.00;;;28.10;92.30;;;;;;4986769;28;20066;-73
2023/06/17 09:28:31;;;;;;;15.15;8.77;;;28.80;91.40;;;;;;4912658;28;232487;-73
2023/06/17 09:30:59;;;;;;;13.82;8.27;;;28.80;90.70;;;;;;4997678;28;20053;-72
2023/06/17 09:33:27;;;;;;;14.53;8.17;;;28.20;91.20;;;;;;4937946;28;212655;-73
2023/06/17 09:36:08;;;;;;;14.43;7.80;;;28.50;91.30;;;;;;5009694;28;20046;-72
2023/06/17 09:38:38;;;;;;;15.45;7.85;;;28.90;90.80;;;;;;4925583;28;259427;-72
2023/06/17 09:41:04;;;;;;;17.15;7.80;;;29.30;89.60;;;;;;5001586;28;20039;-72
2023/06/17 09:43:31;;;;;;;11.85;6.90;;;29.00;90.00;;;;;;4928866;28;212564;-73
2023/06/17 09:46:01;;;;;;;15.35;7.60;;;29.30;88.30;;;;;;5006092;28;20050;-72
2023/06/17 09:48:34;;;;;;;12.48;6.78;;;29.50;86.80;;;;;;4938407;28;216697;-73
2023/06/17 09:51:00;;;;;;;13.93;7.07;;;29.80;86.50;;;;;;5004752;28;20034;-73
2023/06/17 09:53:29;;;;;;;10.90;6.45;;;29.90;86.20;;;;;;4914573;28;213729;-72
2023/06/17 09:55:57;;;;;;;12.32;6.65;;;30.20;88.10;;;;;;4976708;28;20047;-72
2023/06/17 09:58:28;;;;;;;12.35;6.78;;;30.70;86.90;;;;;;4916368;28;211328;-72
2023/06/17 10:00:57;;;;;;;12.57;6.07;;;30.50;85.90;;;;;;4996965;28;20050;-73
2023/06/17 10:03:24;;;;;;;12.68;6.45;;;30.70;85.10;;;;;;4929899;28;217183;-72
2023/06/17 10:05:56;;;;;;;10.93;6.22;;;30.50;84.80;;;;;;4978140;28;20047;-73
2023/06/17 10:08:23;;;;;;;14.40;6.28;;;30.70;85.20;;;;;;4913621;28;208451;-73
2023/06/17 10:10:51;;;;;;;10.82;5.95;;;30.60;84.30;;;;;;5008462;28;20055;-72
2023/06/17 10:13:20;;;;;;;10.60;5.95;;;30.90;80.90;;;;;;4933449;28;232709;-72
2023/06/17 10:15:48;;;;;;;12.10;5.57;;;31.00;83.00;;;;;;4999018;28;20054;-72
2023/06/17 10:18:16;;;;;;;11.13;5.60;;;30.20;80.60;;;;;;4950045;28;216390;-71
2023/06/17 10:20:43;;;;;;;14.35;6.47;;;29.60;82.30;;;;;;5001662;28;20424;-72
2023/06/17 10:23:10;;;;;;;12.25;5.97;;;29.50;82.70;;;;;;4969747;28;204837;-72
2023/06/17 10:25:38;;;;;;;12.00;5.55;;;29.30;84.50;;;;;;4964548;28;20050;-73
2023/06/17 10:28:05;;;;;;;12.57;6.38;;;30.00;83.80;;;;;;4968372;28;20062;-73
2023/06/17 10:30:32;;;;;;;11.82;5.78;;;30.10;82.70;;;;;;4947501;28;201990;-72
2023/06/17 10:33:03;;;;;;;12.35;6.20;;;30.00;81.50;;;;;;4962310;28;20059;-73
2023/06/17 10:35:44;;;;;;;15.10;6.32;;;30.20;82.90;;;;;;4957698;28;212223;-73
2023/06/17 10:38:27;;;;;;;15.23;6.70;;;30.40;81.50;;;;;;4964352;28;213213;-72
2023/06/17 10:40:53;;;;;;;14.52;6.20;;;30.60;81.20;;;;;;4962888;28;20043;-72
2023/06/17 10:43:20;;;;;;;11.85;5.85;;;29.90;82.60;;;;;;4902484;28;215161;-72
2023/06/17 10:45:51;;;;;;;12.50;6.13;;;30.10;82.90;;;;;;4990175;28;20055;-72
2023/06/17 10:48:25;;;;;;;14.23;6.28;;;30.20;81.70;;;;;;4915244;28;218300;-72
2023/06/17 10:50:53;;;;;;;11.20;5.85;;;29.80;81.60;;;;;;4993625;28;20492;-72
2023/06/17 10:53:27;;;;;;;13.85;5.22;;;30.20;81.80;;;;;;4907213;28;216536;-72
2023/06/17 10:55:53;;;;;;;11.38;5.10;;;30.30;80.80;;;;;;4965064;28;20517;-74
2023/06/17 10:58:19;;;;;;;11.65;5.28;;;30.60;79.60;;;;;;4917313;28;218885;-72
2023/06/17 11:00:45;;;;;;;11.15;5.25;;;30.40;79.70;;;;;;4989188;28;20058;-72
2023/06/17 11:03:15;;;;;;;11.80;5.30;;;30.30;80.00;;;;;;4945007;28;218967;-72
2023/06/17 11:05:42;;;;;;;13.23;5.30;;;30.60;80.40;;;;;;4941186;28;20055;-72
2023/06/17 11:08:08;;;;;;;11.35;4.97;;;31.10;78.70;;;;;;4953539;28;208980;-72
2023/06/17 11:10:34;;;;;;;11.65;5.10;;;31.60;78.70;;;;;;4956708;28;207419;-73
2023/06/17 11:13:00;;;;;;;10.73;5.10;;;31.90;78.00;;;;;;4963298;28;20721;-71
2023/06/17 11:15:28;;;;;;;12.18;5.00;;;31.90;77.50;;;;;;4949182;28;217489;-73
2023/06/17 11:18:02;;;;;;;11.40;5.20;;;31.20;78.70;;;;;;4972372;28;20054;-72
2023/06/17 11:20:32;;;;;;;10.10;4.63;;;31.30;78.10;;;;;;4948957;28;211028;-72
2023/06/17 11:22:58;;;;;;;13.68;4.88;;;31.60;77.50;;;;;;4983923;28;20067;-72
2023/06/17 11:25:24;;;;;;;11.13;4.65;;;31.30;77.90;;;;;;4952974;28;211635;-72
2023/06/17 11:27:50;;;;;;;13.00;4.75;;;31.70;77.70;;;;;;4985153;28;20054;-74
2023/06/17 11:30:17;;;;;;;12.63;4.88;;;32.00;77.30;;;;;;4967120;28;209660;-73
2023/06/17 11:32:44;;;;;;;11.13;4.82;;;32.30;77.40;;;;;;4982148;28;20050;-73
2023/06/17 11:35:10;;;;;;;10.70;4.75;;;32.50;77.10;;;;;;4922857;28;213259;-73
2023/06/17 11:37:38;;;;;;;11.75;4.68;;;32.50;75.60;;;;;;4961038;28;20062;-73
2023/06/17 11:40:11;;;;;;;12.23;4.50;;;32.20;75.60;;;;;;4953476;28;213528;-71
2023/06/17 11:42:39;;;;;;;12.65;4.85;;;31.90;73.10;;;;;;4982498;28;20046;-72
2023/06/17 11:45:06;;;;;;;11.35;4.57;;;31.10;75.60;;;;;;4952096;28;213998;-72
2023/06/17 11:47:36;;;;;;;10.80;5.43;;;30.60;75.90;;;;;;4967278;28;20042;-72
2023/06/17 11:50:06;;;;;;;;;;;30.80;77.50;;;;;;4923888;28;215338;-72
2023/06/17 11:52:33;;;;;;;13.35;5.10;;;30.30;75.90;;;;;;4948367;28;20288;-72
2023/06/17 11:54:59;;;;;;;10.13;4.40;;;30.20;77.80;;;;;;4905147;28;212310;-72
2023/06/17 11:57:26;;;;;;;10.10;4.70;;;30.90;78.30;;;;;;4966162;28;20055;-73
2023/06/17 11:59:59;;;;;;;10.18;4.40;;;31.30;76.60;;;;;;4925891;28;214361;-72
2023/06/17 12:02:29;;;;;;;10.88;4.53;;;31.60;76.00;;;;;;4965491;28;20443;-72
2023/06/17 12:05:03;;;;;;;14.18;4.97;;;31.50;75.10;;;;;;4927867;28;91078;-72
2023/06/17 12:07:36;;;;;;;11.13;4.93;;;31.60;75.50;;;;;;4968397;28;20055;-73
2023/06/17 12:10:02;;;;;;;10.05;5.00;;;31.80;75.30;;;;;;4921736;28;210940;-72
2023/06/17 12:12:33;;;;;;;9.93;4.53;;;32.20;74.80;;;;;;4964797;28;20046;-72
2023/06/17 12:15:07;;;;;;;10.20;4.40;;;32.30;74.70;;;;;;4925197;28;216661;-72
2023/06/17 12:17:41;;;;;;;10.23;4.35;;;32.50;75.60;;;;;;4969467;28;20047;-72
2023/06/17 12:20:18;;;;;;;12.48;4.85;;;32.60;73.20;;;;;;4963050;28;212675;-72
2023/06/17 12:22:45;;;;;;;11.80;4.32;;;32.30;73.90;;;;;;4997790;28;20054;-71
2023/06/17 12:25:12;;;;;;;11.55;4.93;;;32.70;72.90;;;;;;4938655;28;212027;-71
2023/06/17 12:27:40;;;;;;;11.13;4.88;;;31.80;73.70;;;;;;4961014;28;20399;-71